sensor_id;sensor_type;location;lat;lon;timestamp;pressure;altitude;pressure_sealevel;temperature;humidity
59939;BME280;45801;51.810;19.444;2023-02-26T00:01:34;97885.00;;;1.06;70.64
59939;BME280;45801;51.810;19.444;2023-02-26T00:04:04;97887.33;;;0.99;70.38
59939;BME280;45801;51.810;19.444;2023-02-26T00:06:33;97889.12;;;0.91;70.76
59939;BME280;45801;51.810;19.444;2023-02-26T00:09:01;97888.73;;;0.90;71.06
59939;BME280;45801;51.810;19.444;2023-02-26T00:11:28;97893.96;;;0.97;71.08
59939;BME280;45801;51.810;19.444;2023-02-26T00:13:55;97896.66;;;0.99;71.27
59939;BME280;45801;51.810;19.444;2023-02-26T00:18:59;97903.69;;;1.04;71.49
59939;BME280;45801;51.810;19.444;2023-02-26T00:21:27;97901.65;;;1.13;71.81
59939;BME280;45801;51.810;19.444;2023-02-26T00:23:55;97905.20;;;1.09;71.40
59939;BME280;45801;51.810;19.444;2023-02-26T00:26:23;97907.80;;;0.95;71.58
59939;BME280;45801;51.810;19.444;2023-02-26T00:28:51;97907.86;;;0.96;71.66
59939;BME280;45801;51.810;19.444;2023-02-26T00:31:18;97912.17;;;0.96;71.78
59939;BME280;45801;51.810;19.444;2023-02-26T00:33:46;97914.77;;;0.73;72.06
59939;BME280;45801;51.810;19.444;2023-02-26T00:36:26;97917.81;;;0.66;72.16
59939;BME280;45801;51.810;19.444;2023-02-26T00:39:07;97920.73;;;0.66;72.61
59939;BME280;45801;51.810;19.444;2023-02-26T00:41:36;97921.09;;;0.58;72.53
59939;BME280;45801;51.810;19.444;2023-02-26T00:44:05;97921.65;;;0.61;72.80
59939;BME280;45801;51.810;19.444;2023-02-26T00:46:43;97926.42;;;0.72;73.16
59939;BME280;45801;51.810;19.444;2023-02-26T00:52:01;97925.27;;;0.73;72.99
59939;BME280;45801;51.810;19.444;2023-02-26T00:54:30;97933.48;;;0.72;72.77
59939;BME280;45801;51.810;19.444;2023-02-26T00:56:58;97934.13;;;0.71;72.48
59939;BME280;45801;51.810;19.444;2023-02-26T00:59:25;97936.23;;;0.66;72.59
59939;BME280;45801;51.810;19.444;2023-02-26T01:01:52;97935.73;;;0.60;72.67
59939;BME280;45801;51.810;19.444;2023-02-26T01:04:21;97938.70;;;0.53;72.80
59939;BME280;45801;51.810;19.444;2023-02-26T01:06:51;97939.90;;;0.52;73.02
59939;BME280;45801;51.810;19.444;2023-02-26T01:09:25;97944.31;;;0.51;73.11
59939;BME280;45801;51.810;19.444;2023-02-26T01:11:53;97945.86;;;0.63;73.03
59939;BME280;45801;51.810;19.444;2023-02-26T01:14:22;97946.30;;;0.67;72.84
59939;BME280;45801;51.810;19.444;2023-02-26T01:22:36;97961.11;;;0.72;74.72
59939;BME280;45801;51.810;19.444;2023-02-26T01:25:07;97963.20;;;0.78;73.03
59939;BME280;45801;51.810;19.444;2023-02-26T01:27:34;97965.09;;;0.81;72.67
59939;BME280;45801;51.810;19.444;2023-02-26T01:30:02;97966.52;;;0.77;72.21
59939;BME280;45801;51.810;19.444;2023-02-26T01:35:43;97977.16;;;0.76;72.43
59939;BME280;45801;51.810;19.444;2023-02-26T01:44:18;97986.20;;;0.66;72.86
59939;BME280;45801;51.810;19.444;2023-02-26T01:47:16;97990.89;;;0.61;72.86
59939;BME280;45801;51.810;19.444;2023-02-26T01:49:46;97993.82;;;0.61;73.28
59939;BME280;45801;51.810;19.444;2023-02-26T01:54:57;97993.59;;;0.57;73.05
59939;BME280;45801;51.810;19.444;2023-02-26T01:57:25;97997.04;;;0.60;73.20
59939;BME280;45801;51.810;19.444;2023-02-26T01:59:52;97999.48;;;0.66;73.51
59939;BME280;45801;51.810;19.444;2023-02-26T02:02:21;97998.95;;;0.71;73.44
59939;BME280;45801;51.810;19.444;2023-02-26T02:04:48;98006.79;;;0.76;72.98
59939;BME280;45801;51.810;19.444;2023-02-26T02:07:16;98012.58;;;0.75;72.76
59939;BME280;45801;51.810;19.444;2023-02-26T02:09:44;98013.83;;;0.72;72.53
59939;BME280;45801;51.810;19.444;2023-02-26T02:12:36;98023.02;;;0.65;72.35
59939;BME280;45801;51.810;19.444;2023-02-26T02:15:14;98032.67;;;0.54;72.35
59939;BME280;45801;51.810;19.444;2023-02-26T02:23:36;98047.77;;;0.64;71.85
59939;BME280;45801;51.810;19.444;2023-02-26T02:31:37;98055.72;;;0.73;71.28
59939;BME280;45801;51.810;19.444;2023-02-26T02:34:15;98060.64;;;0.68;70.63
59939;BME280;45801;51.810;19.444;2023-02-26T02:36:52;98068.64;;;0.64;71.00
59939;BME280;45801;51.810;19.444;2023-02-26T02:39:31;98067.77;;;0.58;71.47
59939;BME280;45801;51.810;19.444;2023-02-26T02:42:19;98070.42;;;0.60;71.57
59939;BME280;45801;51.810;19.444;2023-02-26T02:44:52;98079.35;;;0.43;71.58
59939;BME280;45801;51.810;19.444;2023-02-26T02:47:21;98081.98;;;0.41;71.85
59939;BME280;45801;51.810;19.444;2023-02-26T02:49:55;98087.41;;;0.34;72.00
59939;BME280;45801;51.810;19.444;2023-02-26T02:52:41;98095.52;;;0.32;72.22
59939;BME280;45801;51.810;19.444;2023-02-26T02:55:21;98099.32;;;0.26;72.48
59939;BME280;45801;51.810;19.444;2023-02-26T02:58:16;98099.98;;;0.24;72.75
59939;BME280;45801;51.810;19.444;2023-02-26T03:00:44;98102.67;;;0.28;72.69
59939;BME280;45801;51.810;19.444;2023-02-26T03:05:58;98112.48;;;0.36;72.64
59939;BME280;45801;51.810;19.444;2023-02-26T03:08:29;98117.14;;;0.38;72.20
59939;BME280;45801;51.810;19.444;2023-02-26T03:10:56;98118.23;;;0.39;72.05
59939;BME280;45801;51.810;19.444;2023-02-26T03:13:24;98123.30;;;0.51;72.21
59939;BME280;45801;51.810;19.444;2023-02-26T03:19:35;98131.95;;;0.52;71.29
59939;BME280;45801;51.810;19.444;2023-02-26T03:22:10;98137.24;;;0.48;71.42
59939;BME280;45801;51.810;19.444;2023-02-26T03:25:14;98141.73;;;0.54;72.00
59939;BME280;45801;51.810;19.444;2023-02-26T03:28:00;98139.74;;;0.63;71.52
59939;BME280;45801;51.810;19.444;2023-02-26T03:30:47;98139.58;;;0.72;71.29
59939;BME280;45801;51.810;19.444;2023-02-26T03:33:25;98147.43;;;0.73;70.91
59939;BME280;45801;51.810;19.444;2023-02-26T03:36:00;98153.17;;;0.71;70.86
59939;BME280;45801;51.810;19.444;2023-02-26T03:38:53;98155.74;;;0.68;70.83
59939;BME280;45801;51.810;19.444;2023-02-26T03:41:28;98156.58;;;0.60;70.87
59939;BME280;45801;51.810;19.444;2023-02-26T03:44:00;98161.70;;;0.64;71.12
59939;BME280;45801;51.810;19.444;2023-02-26T03:46:31;98162.52;;;0.69;70.94
59939;BME280;45801;51.810;19.444;2023-02-26T03:49:05;98167.20;;;0.66;70.63
59939;BME280;45801;51.810;19.444;2023-02-26T03:51:34;98172.32;;;0.61;70.38
59939;BME280;45801;51.810;19.444;2023-02-26T03:54:09;98174.73;;;0.61;70.70
59939;BME280;45801;51.810;19.444;2023-02-26T03:56:42;98177.23;;;0.65;71.10
59939;BME280;45801;51.810;19.444;2023-02-26T03:59:12;98184.30;;;0.67;70.61
59939;BME280;45801;51.810;19.444;2023-02-26T04:02:04;98185.83;;;0.64;70.36
59939;BME280;45801;51.810;19.444;2023-02-26T04:04:44;98195.42;;;0.66;70.47
59939;BME280;45801;51.810;19.444;2023-02-26T04:07:14;98196.27;;;0.68;70.53
59939;BME280;45801;51.810;19.444;2023-02-26T04:09:43;98199.38;;;0.63;69.96
59939;BME280;45801;51.810;19.444;2023-02-26T04:12:11;98205.55;;;0.61;70.24
59939;BME280;45801;51.810;19.444;2023-02-26T04:14:38;98212.11;;;0.66;70.66
59939;BME280;45801;51.810;19.444;2023-02-26T04:17:05;98217.30;;;0.71;70.84
59939;BME280;45801;51.810;19.444;2023-02-26T04:19:31;98221.80;;;0.77;70.74
59939;BME280;45801;51.810;19.444;2023-02-26T04:21:58;98225.94;;;0.77;70.14
59939;BME280;45801;51.810;19.444;2023-02-26T04:24:25;98230.63;;;0.80;70.44
59939;BME280;45801;51.810;19.444;2023-02-26T04:26:51;98233.88;;;0.80;70.17
59939;BME280;45801;51.810;19.444;2023-02-26T04:29:18;98238.52;;;0.72;69.96
59939;BME280;45801;51.810;19.444;2023-02-26T04:31:44;98236.86;;;0.70;70.13
59939;BME280;45801;51.810;19.444;2023-02-26T04:34:11;98233.06;;;0.67;70.24
59939;BME280;45801;51.810;19.444;2023-02-26T04:36:38;98239.20;;;0.56;70.38
59939;BME280;45801;51.810;19.444;2023-02-26T04:39:04;98237.53;;;0.49;70.51
59939;BME280;45801;51.810;19.444;2023-02-26T04:41:31;98241.35;;;0.39;70.84
59939;BME280;45801;51.810;19.444;2023-02-26T04:43:57;98245.10;;;0.38;71.28
59939;BME280;45801;51.810;19.444;2023-02-26T04:46:24;98246.38;;;0.42;71.23
59939;BME280;45801;51.810;19.444;2023-02-26T04:48:50;98250.86;;;0.37;71.35
59939;BME280;45801;51.810;19.444;2023-02-26T04:51:18;98251.90;;;0.47;71.31
59939;BME280;45801;51.810;19.444;2023-02-26T04:53:44;98250.14;;;0.54;70.89
59939;BME280;45801;51.810;19.444;2023-02-26T04:56:11;98251.73;;;0.63;70.67
59939;BME280;45801;51.810;19.444;2023-02-26T04:58:38;98255.43;;;0.62;69.99
59939;BME280;45801;51.810;19.444;2023-02-26T05:01:05;98261.10;;;0.53;70.01
59939;BME280;45801;51.810;19.444;2023-02-26T05:03:31;98267.68;;;0.43;70.21
59939;BME280;45801;51.810;19.444;2023-02-26T05:05:58;98269.20;;;0.46;70.76
59939;BME280;45801;51.810;19.444;2023-02-26T05:08:25;98273.02;;;0.49;70.54
59939;BME280;45801;51.810;19.444;2023-02-26T05:10:52;98271.08;;;0.53;70.32
59939;BME280;45801;51.810;19.444;2023-02-26T05:13:19;98274.54;;;0.56;70.29
59939;BME280;45801;51.810;19.444;2023-02-26T05:15:45;98278.45;;;0.61;70.42
59939;BME280;45801;51.810;19.444;2023-02-26T05:18:13;98280.95;;;0.54;69.63
59939;BME280;45801;51.810;19.444;2023-02-26T05:20:40;98282.45;;;0.35;69.71
59939;BME280;45801;51.810;19.444;2023-02-26T05:23:07;98287.77;;;0.14;69.92
59939;BME280;45801;51.810;19.444;2023-02-26T05:25:33;98295.42;;;0.13;70.32
59939;BME280;45801;51.810;19.444;2023-02-26T05:28:00;98296.27;;;0.18;70.28
59939;BME280;45801;51.810;19.444;2023-02-26T05:30:26;98295.07;;;0.28;70.53
59939;BME280;45801;51.810;19.444;2023-02-26T05:32:53;98299.20;;;0.28;69.69
59939;BME280;45801;51.810;19.444;2023-02-26T05:35:20;98304.33;;;0.30;69.60
59939;BME280;45801;51.810;19.444;2023-02-26T05:37:46;98306.92;;;0.32;69.15
59939;BME280;45801;51.810;19.444;2023-02-26T05:40:12;98310.96;;;0.24;68.57
59939;BME280;45801;51.810;19.444;2023-02-26T05:42:39;98319.13;;;0.15;68.27
59939;BME280;45801;51.810;19.444;2023-02-26T05:45:06;98325.34;;;0.12;69.00
59939;BME280;45801;51.810;19.444;2023-02-26T05:47:34;98336.92;;;0.18;69.03
59939;BME280;45801;51.810;19.444;2023-02-26T05:50:01;98342.45;;;0.24;69.20
59939;BME280;45801;51.810;19.444;2023-02-26T05:52:28;98345.19;;;0.33;69.07
59939;BME280;45801;51.810;19.444;2023-02-26T05:54:55;98351.03;;;0.28;68.54
59939;BME280;45801;51.810;19.444;2023-02-26T05:57:22;98354.86;;;0.29;69.02
59939;BME280;45801;51.810;19.444;2023-02-26T05:59:49;98357.98;;;0.37;69.27
59939;BME280;45801;51.810;19.444;2023-02-26T06:02:18;98358.31;;;0.46;69.38
59939;BME280;45801;51.810;19.444;2023-02-26T06:04:44;98368.93;;;0.48;68.56
59939;BME280;45801;51.810;19.444;2023-02-26T06:07:11;98373.70;;;0.55;68.67
59939;BME280;45801;51.810;19.444;2023-02-26T06:09:38;98372.30;;;0.65;69.21
59939;BME280;45801;51.810;19.444;2023-02-26T06:12:04;98376.30;;;0.73;68.99
59939;BME280;45801;51.810;19.444;2023-02-26T06:14:33;98380.84;;;0.76;68.10
59939;BME280;45801;51.810;19.444;2023-02-26T06:17:00;98387.76;;;0.66;68.06
59939;BME280;45801;51.810;19.444;2023-02-26T06:19:26;98391.61;;;0.59;68.19
59939;BME280;45801;51.810;19.444;2023-02-26T06:21:53;98396.27;;;0.50;68.25
59939;BME280;45801;51.810;19.444;2023-02-26T06:24:19;98405.60;;;0.43;68.27
59939;BME280;45801;51.810;19.444;2023-02-26T06:26:46;98412.05;;;0.46;68.93
59939;BME280;45801;51.810;19.444;2023-02-26T06:29:12;98416.66;;;0.48;68.86
59939;BME280;45801;51.810;19.444;2023-02-26T06:31:40;98421.91;;;0.57;69.25
59939;BME280;45801;51.810;19.444;2023-02-26T06:34:07;98426.93;;;0.64;68.93
59939;BME280;45801;51.810;19.444;2023-02-26T06:36:33;98434.67;;;0.67;68.42
59939;BME280;45801;51.810;19.444;2023-02-26T06:39:00;98436.06;;;0.67;68.07
59939;BME280;45801;51.810;19.444;2023-02-26T06:41:26;98440.83;;;0.59;68.18
59939;BME280;45801;51.810;19.444;2023-02-26T06:43:53;98448.13;;;0.60;68.33
59939;BME280;45801;51.810;19.444;2023-02-26T06:46:19;98450.88;;;0.62;68.54
59939;BME280;45801;51.810;19.444;2023-02-26T06:48:46;98454.95;;;0.66;68.22
59939;BME280;45801;51.810;19.444;2023-02-26T06:51:13;98461.02;;;0.54;67.11
59939;BME280;45801;51.810;19.444;2023-02-26T06:53:39;98463.11;;;0.52;67.43
59939;BME280;45801;51.810;19.444;2023-02-26T06:56:06;98472.45;;;0.58;67.79
59939;BME280;45801;51.810;19.444;2023-02-26T06:58:33;98475.11;;;0.63;67.60
59939;BME280;45801;51.810;19.444;2023-02-26T07:00:59;98474.96;;;0.71;67.07
59939;BME280;45801;51.810;19.444;2023-02-26T07:03:26;98479.28;;;0.72;66.53
59939;BME280;45801;51.810;19.444;2023-02-26T07:05:52;98485.77;;;0.71;66.55
59939;BME280;45801;51.810;19.444;2023-02-26T07:08:19;98494.63;;;0.61;66.03
59939;BME280;45801;51.810;19.444;2023-02-26T07:10:45;98500.20;;;0.58;66.51
59939;BME280;45801;51.810;19.444;2023-02-26T07:13:15;98499.66;;;0.57;66.91
59939;BME280;45801;51.810;19.444;2023-02-26T07:15:42;98504.94;;;0.52;66.64
59939;BME280;45801;51.810;19.444;2023-02-26T07:18:09;98507.45;;;0.48;66.79
59939;BME280;45801;51.810;19.444;2023-02-26T07:20:37;98507.48;;;0.51;67.25
59939;BME280;45801;51.810;19.444;2023-02-26T07:23:03;98511.16;;;0.62;67.58
59939;BME280;45801;51.810;19.444;2023-02-26T07:25:30;98515.98;;;0.74;67.63
59939;BME280;45801;51.810;19.444;2023-02-26T07:27:57;98521.27;;;0.85;67.49
59939;BME280;45801;51.810;19.444;2023-02-26T07:30:25;98526.54;;;0.89;66.23
59939;BME280;45801;51.810;19.444;2023-02-26T07:32:53;98532.69;;;0.93;66.80
59939;BME280;45801;51.810;19.444;2023-02-26T07:35:19;98536.55;;;0.94;65.98
59939;BME280;45801;51.810;19.444;2023-02-26T07:37:46;98541.60;;;0.97;66.44
59939;BME280;45801;51.810;19.444;2023-02-26T07:40:13;98548.58;;;0.99;66.16
59939;BME280;45801;51.810;19.444;2023-02-26T07:42:40;98554.48;;;1.00;65.75
59939;BME280;45801;51.810;19.444;2023-02-26T07:45:07;98562.77;;;0.99;65.61
59939;BME280;45801;51.810;19.444;2023-02-26T07:47:34;98567.39;;;1.01;66.01
59939;BME280;45801;51.810;19.444;2023-02-26T07:50:02;98566.17;;;1.06;66.30
59939;BME280;45801;51.810;19.444;2023-02-26T07:52:29;98568.90;;;1.11;65.68
59939;BME280;45801;51.810;19.444;2023-02-26T07:54:55;98575.77;;;1.13;65.08
59939;BME280;45801;51.810;19.444;2023-02-26T07:57:22;98578.05;;;1.13;65.27
59939;BME280;45801;51.810;19.444;2023-02-26T07:59:49;98582.36;;;1.13;65.29
59939;BME280;45801;51.810;19.444;2023-02-26T08:02:16;98585.36;;;1.14;64.96
59939;BME280;45801;51.810;19.444;2023-02-26T08:04:43;98591.44;;;1.13;64.09
59939;BME280;45801;51.810;19.444;2023-02-26T08:07:09;98592.14;;;1.00;63.08
59939;BME280;45801;51.810;19.444;2023-02-26T08:09:36;98596.09;;;1.02;64.40
59939;BME280;45801;51.810;19.444;2023-02-26T08:12:03;98602.77;;;0.99;62.92
59939;BME280;45801;51.810;19.444;2023-02-26T08:14:29;98607.67;;;1.05;63.55
59939;BME280;45801;51.810;19.444;2023-02-26T08:16:56;98608.48;;;1.10;63.60
59939;BME280;45801;51.810;19.444;2023-02-26T08:19:24;98612.37;;;1.18;64.21
59939;BME280;45801;51.810;19.444;2023-02-26T08:21:50;98619.21;;;1.25;63.65
59939;BME280;45801;51.810;19.444;2023-02-26T08:24:17;98620.26;;;1.30;63.35
59939;BME280;45801;51.810;19.444;2023-02-26T08:26:44;98622.58;;;1.19;62.82
59939;BME280;45801;51.810;19.444;2023-02-26T08:29:12;98624.52;;;1.19;63.93
59939;BME280;45801;51.810;19.444;2023-02-26T08:31:39;98631.38;;;1.27;64.95
59939;BME280;45801;51.810;19.444;2023-02-26T08:34:05;98633.09;;;1.33;64.94
59939;BME280;45801;51.810;19.444;2023-02-26T08:36:32;98635.52;;;1.34;64.50
59939;BME280;45801;51.810;19.444;2023-02-26T08:38:58;98634.36;;;1.34;65.20
59939;BME280;45801;51.810;19.444;2023-02-26T08:41:25;98637.69;;;1.40;65.78
59939;BME280;45801;51.810;19.444;2023-02-26T08:43:55;98636.36;;;1.48;65.69
59939;BME280;45801;51.810;19.444;2023-02-26T08:46:21;98638.86;;;1.47;65.23
59939;BME280;45801;51.810;19.444;2023-02-26T08:48:48;98642.92;;;1.46;65.18
59939;BME280;45801;51.810;19.444;2023-02-26T08:51:15;98647.18;;;1.43;65.13
59939;BME280;45801;51.810;19.444;2023-02-26T08:53:41;98648.14;;;1.34;65.00
59939;BME280;45801;51.810;19.444;2023-02-26T08:56:10;98649.39;;;1.32;65.49
59939;BME280;45801;51.810;19.444;2023-02-26T08:58:37;98654.73;;;1.35;66.16
59939;BME280;45801;51.810;19.444;2023-02-26T09:01:04;98658.84;;;1.54;66.08
59939;BME280;45801;51.810;19.444;2023-02-26T09:03:31;98659.70;;;1.84;65.55
59939;BME280;45801;51.810;19.444;2023-02-26T09:05:57;98663.64;;;1.99;64.83
59939;BME280;45801;51.810;19.444;2023-02-26T09:08:24;98666.59;;;1.97;63.74
59939;BME280;45801;51.810;19.444;2023-02-26T09:10:51;98674.90;;;1.92;64.22
59939;BME280;45801;51.810;19.444;2023-02-26T09:13:17;98677.50;;;1.95;64.76
59939;BME280;45801;51.810;19.444;2023-02-26T09:15:44;98678.58;;;1.95;64.50
59939;BME280;45801;51.810;19.444;2023-02-26T09:18:11;98680.42;;;1.97;64.90
59939;BME280;45801;51.810;19.444;2023-02-26T09:20:42;98686.52;;;2.00;64.58
59939;BME280;45801;51.810;19.444;2023-02-26T09:23:10;98692.03;;;2.03;64.09
59939;BME280;45801;51.810;19.444;2023-02-26T09:25:37;98694.73;;;1.97;62.47
59939;BME280;45801;51.810;19.444;2023-02-26T09:28:04;98700.73;;;1.88;62.70
59939;BME280;45801;51.810;19.444;2023-02-26T09:30:31;98709.34;;;1.83;62.50
59939;BME280;45801;51.810;19.444;2023-02-26T09:32:58;98709.86;;;1.63;61.30
59939;BME280;45801;51.810;19.444;2023-02-26T09:35:24;98714.02;;;1.64;62.38
59939;BME280;45801;51.810;19.444;2023-02-26T09:37:51;98719.05;;;1.59;61.77
59939;BME280;45801;51.810;19.444;2023-02-26T09:46:00;98733.28;;;1.57;62.02
59939;BME280;45801;51.810;19.444;2023-02-26T09:48:28;98739.83;;;1.54;62.00
59939;BME280;45801;51.810;19.444;2023-02-26T09:50:57;98744.21;;;1.58;62.66
59939;BME280;45801;51.810;19.444;2023-02-26T09:53:32;98746.23;;;1.57;61.68
59939;BME280;45801;51.810;19.444;2023-02-26T09:56:04;98750.25;;;1.58;62.31
59939;BME280;45801;51.810;19.444;2023-02-26T09:58:37;98755.04;;;1.63;62.56
59939;BME280;45801;51.810;19.444;2023-02-26T10:01:16;98757.46;;;1.70;63.09
59939;BME280;45801;51.810;19.444;2023-02-26T10:06:21;98761.16;;;1.76;62.91
59939;BME280;45801;51.810;19.444;2023-02-26T10:09:16;98766.02;;;1.76;62.07
59939;BME280;45801;51.810;19.444;2023-02-26T10:12:06;98771.59;;;1.69;62.39
59939;BME280;45801;51.810;19.444;2023-02-26T10:14:55;98775.69;;;1.71;63.14
59939;BME280;45801;51.810;19.444;2023-02-26T10:18:01;98784.38;;;1.72;62.90
59939;BME280;45801;51.810;19.444;2023-02-26T10:23:40;98789.06;;;1.85;63.54
59939;BME280;45801;51.810;19.444;2023-02-26T10:26:23;98794.02;;;1.94;63.52
59939;BME280;45801;51.810;19.444;2023-02-26T10:34:48;98806.48;;;1.99;62.81
59939;BME280;45801;51.810;19.444;2023-02-26T10:40:37;98814.41;;;1.89;63.12
59939;BME280;45801;51.810;19.444;2023-02-26T10:51:14;98836.55;;;1.80;64.27
59939;BME280;45801;51.810;19.444;2023-02-26T10:53:53;98837.71;;;1.84;64.46
59939;BME280;45801;51.810;19.444;2023-02-26T10:56:32;98835.98;;;1.91;63.58
59939;BME280;45801;51.810;19.444;2023-02-26T10:58:59;98837.46;;;1.92;63.78
59939;BME280;45801;51.810;19.444;2023-02-26T11:01:28;98840.23;;;2.03;64.26
59939;BME280;45801;51.810;19.444;2023-02-26T11:04:16;98840.67;;;2.07;62.57
59939;BME280;45801;51.810;19.444;2023-02-26T11:09:26;98848.13;;;2.12;60.56
59939;BME280;45801;51.810;19.444;2023-02-26T11:12:04;98848.90;;;2.11;59.90
59939;BME280;45801;51.810;19.444;2023-02-26T11:14:32;98853.95;;;2.14;60.82
59939;BME280;45801;51.810;19.444;2023-02-26T11:17:03;98862.60;;;2.19;59.97
59939;BME280;45801;51.810;19.444;2023-02-26T11:19:34;98867.79;;;2.21;59.46
59939;BME280;45801;51.810;19.444;2023-02-26T11:22:02;98871.77;;;2.24;60.02
59939;BME280;45801;51.810;19.444;2023-02-26T11:24:35;98877.36;;;2.27;59.70
59939;BME280;45801;51.810;19.444;2023-02-26T11:27:06;98882.45;;;2.26;59.94
59939;BME280;45801;51.810;19.444;2023-02-26T11:29:39;98882.02;;;2.24;59.91
59939;BME280;45801;51.810;19.444;2023-02-26T11:32:18;98885.34;;;2.28;60.70
59939;BME280;45801;51.810;19.444;2023-02-26T11:34:48;98889.27;;;2.22;59.10
59939;BME280;45801;51.810;19.444;2023-02-26T11:37:34;98892.22;;;2.17;59.38
59939;BME280;45801;51.810;19.444;2023-02-26T11:40:36;98891.73;;;2.16;59.36
59939;BME280;45801;51.810;19.444;2023-02-26T11:43:07;98894.85;;;2.16;59.24
59939;BME280;45801;51.810;19.444;2023-02-26T11:45:40;98901.23;;;2.20;59.79
59939;BME280;45801;51.810;19.444;2023-02-26T11:48:13;98904.05;;;2.28;58.88
59939;BME280;45801;51.810;19.444;2023-02-26T11:50:46;98909.23;;;2.23;56.96
59939;BME280;45801;51.810;19.444;2023-02-26T11:53:53;98911.55;;;2.17;56.90
59939;BME280;45801;51.810;19.444;2023-02-26T11:58:53;98927.86;;;2.27;59.32
59939;BME280;45801;51.810;19.444;2023-02-26T12:01:26;98931.65;;;2.40;59.14
59939;BME280;45801;51.810;19.444;2023-02-26T12:04:01;98934.13;;;2.48;58.52
59939;BME280;45801;51.810;19.444;2023-02-26T12:06:28;98939.14;;;2.56;59.05
59939;BME280;45801;51.810;19.444;2023-02-26T12:08:55;98936.02;;;2.66;58.77
59939;BME280;45801;51.810;19.444;2023-02-26T12:14:20;98937.01;;;2.88;57.39
59939;BME280;45801;51.810;19.444;2023-02-26T12:17:23;98938.21;;;2.95;56.93
59939;BME280;45801;51.810;19.444;2023-02-26T12:26:44;98947.58;;;2.98;55.56
59939;BME280;45801;51.810;19.444;2023-02-26T12:43:10;98952.14;;;2.86;56.01
59939;BME280;45801;51.810;19.444;2023-02-26T12:48:39;98950.98;;;2.85;55.48
59939;BME280;45801;51.810;19.444;2023-02-26T12:59:49;98958.15;;;2.76;53.81
59939;BME280;45801;51.810;19.444;2023-02-26T13:02:49;98959.23;;;2.66;54.43
59939;BME280;45801;51.810;19.444;2023-02-26T13:06:19;98963.27;;;2.64;55.20
59939;BME280;45801;51.810;19.444;2023-02-26T13:08:28;98967.04;;;2.64;55.20
59939;BME280;45801;51.810;19.444;2023-02-26T13:14:33;98970.75;;;2.63;55.44
59939;BME280;45801;51.810;19.444;2023-02-26T13:17:16;98974.27;;;2.58;56.61
59939;BME280;45801;51.810;19.444;2023-02-26T13:19:54;98978.25;;;2.64;57.10
59939;BME280;45801;51.810;19.444;2023-02-26T13:25:03;98986.73;;;2.64;57.03
59939;BME280;45801;51.810;19.444;2023-02-26T13:27:36;98987.09;;;2.64;57.40
59939;BME280;45801;51.810;19.444;2023-02-26T13:32:54;98994.24;;;2.72;58.70
59939;BME280;45801;51.810;19.444;2023-02-26T13:35:31;98995.65;;;2.82;58.92
59939;BME280;45801;51.810;19.444;2023-02-26T13:38:01;99001.16;;;2.92;58.57
59939;BME280;45801;51.810;19.444;2023-02-26T13:49:22;99011.20;;;3.12;58.54
59939;BME280;45801;51.810;19.444;2023-02-26T13:51:54;99014.55;;;3.13;58.25
59939;BME280;45801;51.810;19.444;2023-02-26T13:56:52;99026.15;;;3.08;57.02
59939;BME280;45801;51.810;19.444;2023-02-26T13:59:29;99022.13;;;3.08;57.11
59939;BME280;45801;51.810;19.444;2023-02-26T14:04:58;99030.74;;;3.10;57.08
59939;BME280;45801;51.810;19.444;2023-02-26T14:07:52;99025.92;;;3.17;57.31
59939;BME280;45801;51.810;19.444;2023-02-26T14:10:31;99022.45;;;3.25;57.06
59939;BME280;45801;51.810;19.444;2023-02-26T14:15:47;99021.31;;;3.49;56.66
59939;BME280;45801;51.810;19.444;2023-02-26T14:18:25;99024.13;;;3.52;55.19
59939;BME280;45801;51.810;19.444;2023-02-26T14:23:56;99031.25;;;3.66;56.60
59939;BME280;45801;51.810;19.444;2023-02-26T14:26:35;99031.86;;;3.70;55.45
59939;BME280;45801;51.810;19.444;2023-02-26T14:32:03;99041.53;;;3.64;53.35
59939;BME280;45801;51.810;19.444;2023-02-26T14:34:45;99046.23;;;3.57;53.66
59939;BME280;45801;51.810;19.444;2023-02-26T14:37:16;99051.27;;;3.52;52.90
59939;BME280;45801;51.810;19.444;2023-02-26T14:39:48;99054.34;;;3.51;54.04
59939;BME280;45801;51.810;19.444;2023-02-26T14:45:12;99056.42;;;3.43;54.27
59939;BME280;45801;51.810;19.444;2023-02-26T14:47:44;99060.63;;;3.44;53.79
59939;BME280;45801;51.810;19.444;2023-02-26T14:50:17;99062.35;;;3.44;54.13
59939;BME280;45801;51.810;19.444;2023-02-26T14:52:55;99066.17;;;3.47;54.52
59939;BME280;45801;51.810;19.444;2023-02-26T14:55:46;99072.33;;;3.46;54.18
59939;BME280;45801;51.810;19.444;2023-02-26T15:04:19;99079.59;;;3.20;53.54
59939;BME280;45801;51.810;19.444;2023-02-26T15:12:35;99096.77;;;3.13;56.21
59939;BME280;45801;51.810;19.444;2023-02-26T15:23:33;99106.28;;;2.98;57.33
59939;BME280;45801;51.810;19.444;2023-02-26T15:26:03;99106.45;;;2.94;57.43
59939;BME280;45801;51.810;19.444;2023-02-26T15:28:34;99108.81;;;2.97;57.57
59939;BME280;45801;51.810;19.444;2023-02-26T15:31:05;99113.22;;;3.01;57.90
59939;BME280;45801;51.810;19.444;2023-02-26T15:33:32;99119.53;;;3.03;57.69
59939;BME280;45801;51.810;19.444;2023-02-26T15:36:05;99123.85;;;3.00;57.91
59939;BME280;45801;51.810;19.444;2023-02-26T15:38:46;99129.81;;;3.06;58.18
59939;BME280;45801;51.810;19.444;2023-02-26T15:41:13;99135.56;;;2.99;57.99
59939;BME280;45801;51.810;19.444;2023-02-26T15:43:46;99137.81;;;3.02;58.23
59939;BME280;45801;51.810;19.444;2023-02-26T15:46:14;99139.92;;;3.00;57.44
59939;BME280;45801;51.810;19.444;2023-02-26T15:48:42;99144.27;;;3.00;57.45
59939;BME280;45801;51.810;19.444;2023-02-26T15:51:12;99147.40;;;2.93;56.66
59939;BME280;45801;51.810;19.444;2023-02-26T15:53:51;99152.34;;;2.97;57.72
59939;BME280;45801;51.810;19.444;2023-02-26T15:56:25;99152.38;;;2.99;56.83
59939;BME280;45801;51.810;19.444;2023-02-26T16:02:14;99156.52;;;2.95;56.72
59939;BME280;45801;51.810;19.444;2023-02-26T16:04:42;99158.10;;;2.92;56.54
59939;BME280;45801;51.810;19.444;2023-02-26T16:07:10;99164.25;;;2.96;57.45
59939;BME280;45801;51.810;19.444;2023-02-26T16:09:40;99167.70;;;3.01;57.57